createdAt,value
2018-12-20T00:01:01.895Z,22.30
2018-12-20T00:06:07.162Z,21.00
2018-12-20T00:11:13.914Z,23.20
2018-12-20T00:16:19.073Z,20.07
2018-12-20T00:21:24.215Z,20.87
2018-12-20T00:26:29.199Z,21.07
2018-12-20T00:31:34.151Z,20.67
2018-12-20T00:36:39.027Z,21.77
2018-12-20T00:41:43.880Z,21.60
2018-12-20T00:46:48.829Z,24.27
2018-12-20T00:57:04.204Z,23.47
2018-12-20T01:02:09.369Z,24.10
2018-12-20T01:07:14.627Z,23.57
2018-12-20T01:12:19.708Z,23.50
2018-12-20T01:17:26.725Z,23.90
2018-12-20T01:22:31.678Z,22.80
2018-12-20T01:27:37.021Z,23.30
2018-12-20T01:32:42.015Z,23.90
2018-12-20T01:37:46.882Z,23.60
2018-12-20T01:42:52.412Z,21.17
2018-12-20T01:47:57.268Z,22.90
2018-12-20T01:53:03.300Z,24.77
2018-12-20T01:58:08.521Z,25.60
2018-12-20T02:03:13.398Z,23.50
2018-12-20T02:08:18.413Z,24.27
2018-12-20T02:18:33.487Z,23.83
2018-12-20T02:23:39.083Z,23.70
2018-12-20T02:28:44.048Z,24.80
2018-12-20T02:33:49.342Z,25.70
2018-12-20T02:38:54.533Z,25.70
2018-12-20T02:43:59.557Z,23.40
2018-12-20T02:49:05.373Z,27.27
2018-12-20T02:54:10.465Z,25.37
2018-12-20T02:59:15.729Z,24.77
2018-12-20T03:04:21.937Z,25.20
2018-12-20T03:09:26.985Z,25.10
2018-12-20T03:14:31.976Z,25.83
2018-12-20T03:19:37.599Z,26.63
2018-12-20T03:24:42.803Z,22.60
2018-12-20T03:29:47.973Z,24.97
2018-12-20T03:34:53.270Z,25.37
2018-12-20T03:39:58.491Z,24.00
2018-12-20T03:45:03.570Z,24.73
2018-12-20T03:50:12.296Z,22.20
2018-12-20T03:55:17.808Z,22.70
2018-12-20T04:00:23.731Z,24.47
2018-12-20T04:05:28.678Z,22.00
2018-12-20T04:10:33.663Z,23.60
2018-12-20T04:15:38.850Z,21.77
2018-12-20T04:20:43.958Z,21.23
2018-12-20T04:25:48.983Z,21.00
2018-12-20T04:30:53.878Z,19.00
2018-12-20T04:35:59.458Z,20.10
2018-12-20T04:41:05.662Z,19.83
2018-12-20T04:46:10.681Z,17.97
2018-12-20T04:51:16.963Z,19.87
2018-12-20T04:56:22.272Z,19.10
2018-12-20T05:01:27.591Z,18.20
2018-12-20T05:06:33.705Z,19.40
2018-12-20T05:11:38.561Z,20.07
2018-12-20T05:16:43.899Z,19.47
2018-12-20T05:21:49.061Z,18.60
2018-12-20T05:26:58.389Z,18.20
2018-12-20T05:32:03.658Z,17.67
2018-12-20T05:37:08.834Z,17.63
2018-12-20T05:42:13.976Z,16.47
2018-12-20T05:47:19.269Z,18.73
2018-12-20T05:52:24.617Z,17.20
2018-12-20T05:57:29.481Z,17.97
2018-12-20T06:02:34.626Z,19.03
2018-12-20T06:07:40.587Z,19.60
2018-12-20T06:12:45.626Z,20.13
2018-12-20T06:17:51.112Z,19.33
2018-12-20T06:28:06.239Z,19.27
2018-12-20T06:33:11.127Z,18.27
2018-12-20T06:38:15.950Z,19.37
2018-12-20T06:43:20.960Z,21.30
2018-12-20T06:48:25.730Z,16.43
2018-12-20T06:53:30.634Z,17.53
2018-12-20T06:58:35.486Z,17.37
2018-12-20T07:03:40.952Z,15.40
2018-12-20T07:08:45.785Z,14.40
2018-12-20T07:13:50.652Z,15.27
2018-12-20T07:18:55.535Z,13.63
2018-12-20T07:24:00.379Z,15.93
2018-12-20T07:29:05.650Z,16.43
2018-12-20T07:34:10.568Z,17.10
2018-12-20T07:39:15.436Z,16.00
2018-12-20T07:44:21.644Z,16.10
2018-12-20T07:49:26.498Z,17.00
2018-12-20T07:54:31.340Z,17.73
2018-12-20T07:59:36.302Z,15.00
2018-12-20T08:04:41.237Z,16.43
2018-12-20T08:09:46.061Z,15.87
2018-12-20T08:14:51.005Z,16.90
2018-12-20T08:19:55.875Z,14.80
2018-12-20T08:25:01.031Z,16.07
2018-12-20T08:30:09.539Z,15.63
2018-12-20T08:35:14.495Z,15.60
2018-12-20T08:40:19.410Z,14.33
2018-12-20T08:45:24.861Z,19.77
2018-12-20T08:50:30.958Z,16.37
2018-12-20T08:55:36.536Z,19.83
2018-12-20T09:00:41.761Z,19.80
2018-12-20T09:05:46.867Z,20.00
2018-12-20T09:10:51.705Z,20.73
2018-12-20T09:15:56.882Z,23.40
2018-12-20T09:21:02.911Z,23.50
2018-12-20T09:26:07.849Z,21.60
2018-12-20T09:31:13.285Z,21.63
2018-12-20T09:36:18.190Z,22.23
2018-12-20T09:41:23.798Z,21.10
2018-12-20T09:46:28.779Z,20.43
2018-12-20T09:51:33.729Z,20.17
2018-12-20T09:56:39.383Z,22.67
2018-12-20T10:01:46.510Z,20.90
2018-12-20T10:06:52.039Z,23.70
2018-12-20T10:11:57.004Z,24.63
2018-12-20T10:17:02.344Z,21.77
2018-12-20T10:22:08.000Z,20.43
2018-12-20T10:27:13.070Z,24.87
2018-12-20T10:32:17.990Z,24.33
2018-12-20T10:37:22.845Z,26.90
2018-12-20T10:42:27.700Z,20.37
2018-12-20T10:47:33.339Z,22.37
2018-12-20T10:52:38.727Z,23.77
2018-12-20T10:57:43.679Z,22.23
2018-12-20T11:04:59.179Z,22.90
2018-12-20T11:10:09.798Z,22.73
2018-12-20T11:15:15.861Z,21.53
2018-12-20T11:20:21.360Z,21.43
2018-12-20T11:25:27.205Z,21.13
2018-12-20T11:30:34.174Z,23.30
2018-12-20T11:35:39.054Z,24.30
2018-12-20T11:40:44.031Z,27.53
2018-12-20T11:45:49.323Z,24.13
2018-12-20T11:50:55.995Z,19.97
2018-12-20T11:56:01.242Z,20.37
2018-12-20T12:01:07.741Z,19.60
2018-12-20T12:06:14.319Z,26.80
2018-12-20T12:11:20.454Z,30.17
2018-12-20T12:16:25.738Z,18.87
2018-12-20T12:21:30.625Z,14.23
2018-12-20T12:26:36.200Z,15.23
2018-12-20T12:31:41.076Z,17.87
2018-12-20T12:36:46.638Z,14.33
2018-12-20T12:41:51.569Z,13.00
2018-12-20T12:46:56.486Z,18.13
2018-12-20T12:52:01.359Z,12.40
2018-12-20T12:57:07.164Z,10.57
2018-12-20T13:02:12.414Z,8.43
2018-12-20T13:07:17.673Z,9.73
2018-12-20T13:12:22.832Z,8.53
2018-12-20T13:17:27.683Z,11.03
2018-12-20T13:22:32.737Z,7.17
2018-12-20T13:27:37.583Z,6.07
2018-12-20T13:32:42.421Z,6.80
2018-12-20T13:37:47.361Z,6.17
2018-12-20T13:42:52.836Z,4.80
2018-12-20T13:47:57.653Z,4.70
2018-12-20T13:58:18.981Z,3.87
2018-12-20T14:03:26.011Z,4.80
2018-12-20T14:08:30.917Z,4.87
2018-12-20T14:13:35.779Z,4.50
2018-12-20T14:18:41.458Z,4.37
2018-12-20T14:23:46.884Z,4.20
2018-12-20T14:28:52.755Z,3.20
2018-12-20T14:33:58.365Z,4.73
2018-12-20T14:39:04.866Z,5.03
2018-12-20T14:44:10.870Z,3.13
2018-12-20T14:49:15.771Z,3.77
2018-12-20T14:54:20.746Z,3.63
2018-12-20T15:04:35.829Z,4.00
2018-12-20T15:09:41.530Z,3.00
2018-12-20T15:14:46.618Z,2.93
2018-12-20T15:19:51.601Z,3.83
2018-12-20T15:24:56.485Z,3.70
2018-12-20T15:30:11.099Z,2.73
2018-12-20T15:35:16.069Z,4.10
2018-12-20T15:40:21.283Z,3.57
2018-12-20T15:45:26.358Z,3.63
2018-12-20T15:50:33.841Z,4.17
2018-12-20T15:55:39.772Z,3.50
2018-12-20T16:00:45.074Z,3.90
2018-12-20T16:05:50.899Z,4.53
2018-12-20T16:10:55.848Z,4.33
2018-12-20T16:16:01.018Z,3.90
2018-12-20T16:21:07.014Z,4.43
2018-12-20T16:26:13.572Z,4.40
2018-12-20T16:31:19.204Z,4.57
2018-12-20T16:36:25.730Z,4.50
2018-12-20T16:41:30.831Z,4.83
2018-12-20T16:46:35.978Z,4.67
2018-12-20T16:51:41.659Z,5.07
2018-12-20T16:56:46.620Z,4.63
2018-12-20T17:07:02.864Z,3.70
2018-12-20T17:12:07.772Z,4.37
2018-12-20T17:17:14.461Z,3.87
2018-12-20T17:22:19.711Z,4.27
2018-12-20T17:27:26.332Z,3.20
2018-12-20T17:32:32.971Z,4.17
2018-12-20T17:37:40.633Z,3.80
2018-12-20T17:42:46.144Z,4.27
2018-12-20T17:47:51.784Z,3.63
2018-12-20T17:52:57.330Z,4.53
2018-12-20T17:58:03.543Z,4.07
2018-12-20T18:03:08.845Z,4.40
2018-12-20T18:08:16.611Z,4.30
2018-12-20T18:13:22.739Z,4.00
2018-12-20T18:18:27.916Z,3.70
2018-12-20T18:23:33.528Z,3.93
2018-12-20T18:28:39.467Z,4.00
2018-12-20T18:33:45.749Z,4.43
2018-12-20T18:38:51.227Z,4.00
2018-12-20T18:43:56.246Z,3.73
2018-12-20T18:49:06.371Z,3.83
2018-12-20T18:54:12.918Z,3.47
2018-12-20T18:59:17.993Z,4.20
2018-12-20T19:04:24.101Z,3.90
2018-12-20T19:09:29.560Z,4.03
2018-12-20T19:14:35.574Z,3.30
2018-12-20T19:19:40.800Z,3.03
2018-12-20T19:24:50.634Z,3.10
2018-12-20T19:29:55.804Z,3.03
2018-12-20T19:35:05.926Z,3.10
2018-12-20T19:40:13.587Z,3.03
2018-12-20T19:45:21.417Z,3.30
2018-12-20T19:50:29.985Z,3.20
2018-12-20T19:55:35.782Z,3.13
2018-12-20T20:00:43.943Z,3.97
2018-12-20T20:05:50.508Z,3.43
2018-12-20T20:10:56.019Z,3.70
2018-12-20T20:16:03.568Z,3.07
2018-12-20T20:21:10.412Z,3.57
2018-12-20T20:26:15.558Z,3.33
2018-12-20T20:31:21.687Z,2.53
2018-12-20T20:36:28.498Z,2.90
2018-12-20T20:41:38.368Z,2.50
2018-12-20T20:46:46.270Z,2.90
2018-12-20T20:51:52.729Z,2.77
2018-12-20T20:57:00.984Z,2.90
2018-12-20T21:02:09.551Z,2.80
2018-12-20T21:07:20.971Z,2.23
2018-12-20T21:12:28.776Z,2.93
2018-12-20T21:17:35.022Z,3.17
2018-12-20T21:22:40.926Z,3.20
2018-12-20T21:27:46.362Z,2.77
2018-12-20T21:32:52.600Z,3.00
2018-12-20T21:37:58.126Z,2.60
2018-12-20T21:43:04.652Z,2.77
2018-12-20T21:48:09.614Z,2.33
2018-12-20T21:53:15.423Z,3.00
2018-12-20T21:58:20.904Z,2.60
2018-12-20T22:03:26.498Z,2.63
2018-12-20T22:08:32.667Z,3.30
2018-12-20T22:13:37.705Z,2.80
2018-12-20T22:18:42.770Z,2.90
2018-12-20T22:23:48.538Z,2.60
2018-12-20T22:28:55.029Z,2.80
2018-12-20T22:34:00.027Z,3.00
2018-12-20T22:39:08.034Z,2.60
2018-12-20T22:44:13.391Z,2.57
2018-12-20T22:49:18.203Z,2.47
2018-12-20T22:54:23.156Z,2.90
2018-12-20T22:59:28.936Z,2.27
2018-12-20T23:04:34.858Z,2.17
2018-12-20T23:09:40.127Z,2.50
2018-12-20T23:14:46.460Z,2.27
2018-12-20T23:19:52.762Z,2.07
2018-12-20T23:24:57.595Z,2.40
2018-12-20T23:30:05.811Z,2.00
2018-12-20T23:35:11.576Z,2.77
2018-12-20T23:40:17.615Z,2.23
2018-12-20T23:45:23.112Z,1.93
2018-12-20T23:50:28.019Z,1.70
2018-12-20T23:55:34.141Z,2.63
